Time;durP1;ratioP1;P1;durP2;ratioP2;P2;SDS_P1;SDS_P2;PMS_P1;PMS_P2;Temp;Humidity;BMP_temperature;BMP_pressure;BME280_temperature;BME280_humidity;BME280_pressure;Samples;Min_cycle;Max_cycle;Signal;HPM_P1;HPM_P2
2021/05/12 00:01:51;;;;;;;1.87;1.77;;;13.30;99.90;;;;;;5070469;28;20202;-51
2021/05/12 00:04:17;;;;;;;1.63;1.53;;;13.20;99.90;;;;;;5068231;28;20704;-51
2021/05/12 00:06:42;;;;;;;1.93;1.83;;;13.40;99.90;;;;;;5068361;28;20502;-51
2021/05/12 00:09:08;;;;;;;1.97;1.70;;;13.30;99.90;;;;;;5067955;28;20205;-51
2021/05/12 00:11:34;;;;;;;2.33;1.97;;;13.40;99.90;;;;;;5068161;28;20287;-51
2021/05/12 00:13:59;;;;;;;1.90;1.80;;;13.10;99.90;;;;;;5067717;28;20206;-51
2021/05/12 00:16:25;;;;;;;1.90;1.80;;;13.30;99.90;;;;;;5062240;28;20495;-51
2021/05/12 00:18:51;;;;;;;1.90;1.80;;;13.50;99.90;;;;;;5067804;28;20174;-51
2021/05/12 00:21:31;;;;;;;1.90;1.80;;;13.40;99.90;;;;;;5067731;28;20273;-51
2021/05/12 00:23:59;;;;;;;2.25;2.05;;;13.50;99.90;;;;;;5068104;28;20688;-51
2021/05/12 00:26:29;;;;;;;2.78;1.90;;;13.40;99.90;;;;;;5067681;28;20624;-51
2021/05/12 00:28:54;;;;;;;2.70;2.10;;;13.30;99.90;;;;;;5067713;28;20178;-51
2021/05/12 00:31:20;;;;;;;2.00;1.90;;;13.30;99.90;;;;;;5067424;28;20204;-51
2021/05/12 00:33:46;;;;;;;2.67;2.47;;;13.40;99.90;;;;;;5067343;28;20240;-51
2021/05/12 00:36:11;;;;;;;2.50;2.30;;;13.30;99.90;;;;;;5067534;28;20212;-51
2021/05/12 00:38:37;;;;;;;2.80;1.97;;;13.30;99.90;;;;;;5067566;28;20176;-51
2021/05/12 00:41:04;;;;;;;2.00;1.80;;;13.60;99.90;;;;;;5070939;28;20278;-51
2021/05/12 00:43:30;;;;;;;3.65;2.50;;;13.30;99.90;;;;;;5071242;28;20226;-51
2021/05/12 00:45:56;;;;;;;2.30;2.10;;;13.30;99.90;;;;;;5071165;28;20218;-52
2021/05/12 00:48:21;;;;;;;2.30;2.10;;;13.10;99.90;;;;;;5071091;28;20225;-51
2021/05/12 00:50:47;;;;;;;1.93;1.70;;;13.10;99.90;;;;;;5070944;28;20497;-51
2021/05/12 00:53:13;;;;;;;2.13;1.93;;;13.30;99.90;;;;;;5075181;28;20222;-52
2021/05/12 00:55:38;;;;;;;1.93;1.83;;;13.10;99.90;;;;;;5070741;28;20597;-51
2021/05/12 00:58:04;;;;;;;3.83;2.07;;;13.00;99.90;;;;;;5065155;28;20189;-52
2021/05/12 01:00:30;;;;;;;2.17;1.97;;;13.10;99.90;;;;;;5076570;28;20278;-51
2021/05/12 01:02:56;;;;;;;1.53;1.43;;;13.00;99.90;;;;;;5052632;28;20457;-51
2021/05/12 01:05:30;;;;;;;2.05;1.88;;;13.30;99.90;;;;;;5070552;28;20202;-51
2021/05/12 01:07:56;;;;;;;2.42;2.03;;;12.90;99.90;;;;;;5070302;28;20215;-51
2021/05/12 01:10:22;;;;;;;1.87;1.77;;;13.20;99.90;;;;;;5074780;28;20565;-51
2021/05/12 01:12:47;;;;;;;1.70;1.60;;;13.00;99.90;;;;;;5070236;28;20518;-51
2021/05/12 01:15:13;;;;;;;1.50;1.40;;;13.10;99.90;;;;;;5070511;28;20231;-51
2021/05/12 01:17:41;;;;;;;1.77;1.30;;;12.80;99.90;;;;;;5069413;28;20186;-52
2021/05/12 01:20:08;;;;;;;1.75;1.65;;;12.40;99.90;;;;;;5070056;28;20221;-51
2021/05/12 01:22:33;;;;;;;1.67;1.58;;;12.90;99.90;;;;;;5070950;28;20432;-51
2021/05/12 01:24:59;;;;;;;3.73;1.40;;;13.10;99.90;;;;;;5070358;28;20217;-51
2021/05/12 01:27:25;;;;;;;1.83;1.73;;;13.10;99.90;;;;;;5071408;28;20232;-51
2021/05/12 01:29:50;;;;;;;1.83;1.60;;;13.00;99.90;;;;;;5071201;28;20273;-51
2021/05/12 01:32:16;;;;;;;1.60;1.50;;;12.60;99.90;;;;;;5071306;28;20289;-52
2021/05/12 01:34:42;;;;;;;2.45;1.30;;;12.70;99.90;;;;;;5071261;28;20218;-51
2021/05/12 01:37:09;;;;;;;2.47;1.33;;;12.80;99.90;;;;;;5070635;28;20230;-51
2021/05/12 01:39:35;;;;;;;1.63;1.40;;;12.90;99.90;;;;;;5070951;28;20178;-51
2021/05/12 01:42:01;;;;;;;1.97;1.67;;;12.80;99.90;;;;;;5070868;28;20208;-51
2021/05/12 01:44:26;;;;;;;1.40;1.30;;;13.10;99.90;;;;;;5073005;28;20463;-51
2021/05/12 01:46:52;;;;;;;1.70;1.47;;;12.80;99.90;;;;;;5070680;28;20174;-51
2021/05/12 01:49:18;;;;;;;1.40;1.30;;;12.70;99.90;;;;;;5070330;28;20563;-51
2021/05/12 01:51:44;;;;;;;1.60;1.40;;;12.80;99.90;;;;;;5069120;28;20509;-51
2021/05/12 01:54:10;;;;;;;1.73;1.60;;;12.60;99.90;;;;;;5068851;28;20463;-51
2021/05/12 01:56:37;;;;;;;1.37;1.27;;;12.70;99.90;;;;;;5069901;28;20526;-51
2021/05/12 01:59:04;;;;;;;1.42;1.30;;;12.60;99.90;;;;;;5069970;28;20214;-51
2021/05/12 02:01:30;;;;;;;1.63;1.50;;;12.60;99.90;;;;;;5071464;28;20200;-51
2021/05/12 02:04:01;;;;;;;4.00;3.63;;;12.60;99.90;;;;;;5069767;28;20679;-51
2021/05/12 02:06:26;;;;;;;4.53;1.80;;;12.50;99.90;;;;;;5069682;28;20436;-51
2021/05/12 02:08:52;;;;;;;3.50;1.97;;;12.70;99.90;;;;;;5070273;28;20187;-52
2021/05/12 02:11:17;;;;;;;2.03;1.77;;;12.50;99.90;;;;;;5069589;28;20281;-51
2021/05/12 02:13:43;;;;;;;2.00;1.90;;;12.50;99.90;;;;;;5065343;28;20211;-51
2021/05/12 02:16:09;;;;;;;5.10;4.07;;;12.40;99.90;;;;;;5069262;28;20704;-51
2021/05/12 02:18:35;;;;;;;3.13;2.93;;;12.40;99.90;;;;;;5070283;28;20224;-51
2021/05/12 02:21:01;;;;;;;2.40;2.20;;;12.70;99.90;;;;;;5069340;28;20274;-51
2021/05/12 02:23:27;;;;;;;13.87;9.70;;;12.50;99.90;;;;;;5069068;28;20632;-51
2021/05/12 02:25:52;;;;;;;4.97;4.30;;;12.70;99.90;;;;;;5068825;28;20438;-51
2021/05/12 02:28:18;;;;;;;6.70;3.60;;;12.80;99.90;;;;;;5069269;28;20193;-51
2021/05/12 02:30:44;;;;;;;3.40;3.10;;;12.80;99.90;;;;;;5068832;28;20235;-51
2021/05/12 02:33:11;;;;;;;2.83;2.60;;;13.00;99.90;;;;;;5068621;28;20277;-51
2021/05/12 02:35:38;;;;;;;3.55;2.90;;;12.90;99.90;;;;;;5069528;28;20210;-51
2021/05/12 02:38:04;;;;;;;2.92;2.17;;;12.60;99.90;;;;;;5068659;28;20679;-51
2021/05/12 02:40:29;;;;;;;2.70;2.50;;;12.60;99.90;;;;;;5068726;28;20206;-51
2021/05/12 02:42:56;;;;;;;3.20;3.00;;;12.60;99.90;;;;;;5068788;28;20334;-51
2021/05/12 02:45:22;;;;;;;3.15;2.88;;;12.40;99.90;;;;;;5069175;28;20216;-51
2021/05/12 02:47:59;;;;;;;3.28;3.03;;;12.70;99.90;;;;;;5068841;28;20231;-51
2021/05/12 02:50:34;;;;;;;3.20;3.00;;;12.50;99.90;;;;;;5068715;28;20182;-51
2021/05/12 02:53:01;;;;;;;3.78;2.85;;;12.50;99.90;;;;;;5072758;28;20212;-51
2021/05/12 02:55:28;;;;;;;3.30;3.00;;;12.60;99.90;;;;;;5068602;28;20202;-51
2021/05/12 02:57:55;;;;;;;4.15;3.20;;;12.60;99.90;;;;;;5068322;28;20190;-51
2021/05/12 03:00:23;;;;;;;3.40;3.10;;;12.50;99.90;;;;;;5068140;28;20182;-51
2021/05/12 03:02:49;;;;;;;5.35;3.90;;;12.40;99.90;;;;;;5068957;28;20215;-51
2021/05/12 03:05:15;;;;;;;3.17;2.80;;;12.50;99.90;;;;;;5068783;28;20185;-51
2021/05/12 03:07:41;;;;;;;4.68;3.35;;;12.80;99.90;;;;;;5068527;28;20188;-51
2021/05/12 03:10:11;;;;;;;3.73;3.43;;;12.50;99.90;;;;;;5071220;28;20179;-51
2021/05/12 03:12:37;;;;;;;3.95;3.65;;;12.30;99.90;;;;;;5068539;28;20432;-51
2021/05/12 03:15:06;;;;;;;4.50;3.57;;;12.20;99.90;;;;;;5070658;28;20259;-51
2021/05/12 03:17:31;;;;;;;4.97;3.65;;;12.40;99.90;;;;;;5067845;28;20398;-51
2021/05/12 03:19:57;;;;;;;6.10;3.93;;;12.40;99.90;;;;;;5068023;28;20181;-51
2021/05/12 03:22:22;;;;;;;4.37;3.40;;;12.40;99.90;;;;;;5068508;28;20181;-51
2021/05/12 03:24:48;;;;;;;3.70;3.40;;;12.30;99.90;;;;;;5069368;28;20208;-51
2021/05/12 03:27:14;;;;;;;4.63;4.23;;;12.20;99.90;;;;;;5072195;28;20197;-51
2021/05/12 03:29:42;;;;;;;4.33;3.97;;;12.50;99.90;;;;;;5068136;28;20193;-51
2021/05/12 03:32:08;;;;;;;7.57;4.68;;;12.30;99.90;;;;;;5068481;28;20359;-51
2021/05/12 03:34:36;;;;;;;4.30;3.90;;;12.40;99.90;;;;;;5068284;28;20718;-51
2021/05/12 03:37:02;;;;;;;5.97;3.95;;;11.90;99.90;;;;;;5067686;28;20522;-51
2021/05/12 03:39:28;;;;;;;5.70;4.73;;;12.70;99.90;;;;;;5066201;28;20868;-51
2021/05/12 03:41:54;;;;;;;5.07;4.60;;;12.50;99.90;;;;;;5067755;28;20198;-51
2021/05/12 03:44:20;;;;;;;8.77;5.78;;;12.40;99.90;;;;;;5067998;28;20465;-51
2021/05/12 03:46:45;;;;;;;6.60;5.40;;;12.50;99.90;;;;;;5067878;28;20178;-51
2021/05/12 03:49:11;;;;;;;5.57;5.03;;;12.20;99.90;;;;;;5067823;28;20328;-51
2021/05/12 03:51:37;;;;;;;6.73;6.00;;;12.50;99.90;;;;;;5067825;28;20177;-51
2021/05/12 03:54:03;;;;;;;6.97;5.47;;;12.30;99.90;;;;;;5067529;28;20275;-51
2021/05/12 03:56:28;;;;;;;6.65;5.70;;;12.30;99.90;;;;;;5067625;28;20220;-51
2021/05/12 03:58:54;;;;;;;8.50;6.30;;;12.60;99.90;;;;;;5065338;28;20178;-52
2021/05/12 04:01:19;;;;;;;10.00;6.23;;;12.40;99.90;;;;;;5067958;28;20181;-51
2021/05/12 04:03:45;;;;;;;7.00;6.40;;;12.30;99.90;;;;;;5067932;28;20202;-51
2021/05/12 04:06:11;;;;;;;7.57;5.73;;;12.60;99.90;;;;;;5068029;28;20274;-51
2021/05/12 04:08:36;;;;;;;9.50;5.80;;;12.50;99.90;;;;;;5067812;28;20183;-51
2021/05/12 04:11:02;;;;;;;6.37;5.57;;;12.50;99.90;;;;;;5067597;28;20540;-51
2021/05/12 04:13:28;;;;;;;7.57;6.70;;;12.40;99.90;;;;;;5067688;28;20704;-51
2021/05/12 04:15:53;;;;;;;6.87;5.73;;;12.50;99.90;;;;;;5065799;28;20202;-51
2021/05/12 04:18:19;;;;;;;7.20;5.90;;;12.60;99.90;;;;;;5069402;28;20182;-51
2021/05/12 04:20:44;;;;;;;7.60;5.70;;;12.70;99.90;;;;;;5060065;28;20606;-51
2021/05/12 04:23:10;;;;;;;8.20;6.63;;;12.80;99.90;;;;;;5071497;28;20707;-51
2021/05/12 04:25:36;;;;;;;9.30;6.40;;;12.70;99.90;;;;;;5068909;28;20185;-51
2021/05/12 04:28:02;;;;;;;8.20;6.13;;;12.80;99.90;;;;;;5069443;28;20219;-51
2021/05/12 04:30:28;;;;;;;7.13;6.00;;;12.70;99.90;;;;;;5069063;28;20187;-51
2021/05/12 04:32:58;;;;;;;8.68;6.45;;;12.50;99.90;;;;;;5064676;28;20501;-51
2021/05/12 04:35:24;;;;;;;8.85;5.55;;;12.90;99.90;;;;;;5067649;28;20567;-51
2021/05/12 04:37:51;;;;;;;7.75;5.45;;;12.90;99.90;;;;;;5068144;28;20182;-51
2021/05/12 04:40:17;;;;;;;7.15;6.45;;;12.40;99.90;;;;;;5070465;28;20175;-51
2021/05/12 04:42:43;;;;;;;7.15;6.45;;;12.50;99.90;;;;;;5069950;28;20649;-51
2021/05/12 04:45:11;;;;;;;6.73;6.00;;;12.40;99.90;;;;;;5069593;28;20187;-51
2021/05/12 04:47:37;;;;;;;9.63;6.53;;;12.60;99.90;;;;;;5069775;28;20194;-51
2021/05/12 04:50:05;;;;;;;8.60;6.73;;;12.70;99.90;;;;;;5069667;28;20293;-51
2021/05/12 04:52:30;;;;;;;6.80;6.10;;;12.70;99.90;;;;;;5071501;28;20907;-51
2021/05/12 04:54:56;;;;;;;7.20;6.50;;;12.50;99.90;;;;;;5065677;28;20238;-52
2021/05/12 04:57:22;;;;;;;6.93;6.17;;;13.00;99.90;;;;;;5068124;28;20178;-60
2021/05/12 04:59:47;;;;;;;7.43;6.10;;;12.80;99.90;;;;;;5064529;28;20581;-56
2021/05/12 05:02:14;;;;;;;7.40;5.67;;;12.90;99.90;;;;;;5068410;28;20181;-57
2021/05/12 05:04:40;;;;;;;6.32;5.72;;;13.00;99.90;;;;;;5066529;28;20202;-58
2021/05/12 05:07:06;;;;;;;6.43;5.22;;;12.80;99.90;;;;;;5066194;28;20205;-57
2021/05/12 05:09:32;;;;;;;5.80;5.30;;;12.70;99.90;;;;;;5070110;28;20183;-52
2021/05/12 05:11:57;;;;;;;5.40;4.83;;;12.90;99.90;;;;;;5069625;28;20692;-52
2021/05/12 05:14:23;;;;;;;7.23;4.70;;;12.50;99.90;;;;;;5068194;28;20213;-51
2021/05/12 05:16:49;;;;;;;6.77;5.67;;;12.40;99.90;;;;;;5068448;28;20183;-50
2021/05/12 05:19:15;;;;;;;14.60;5.00;;;12.30;99.90;;;;;;5066819;28;20201;-50
2021/05/12 05:21:41;;;;;;;6.73;5.10;;;12.60;99.90;;;;;;5062644;28;20180;-51
2021/05/12 05:24:08;;;;;;;6.63;5.80;;;12.90;99.90;;;;;;5067960;28;20473;-52
2021/05/12 05:26:34;;;;;;;5.00;4.50;;;12.60;99.90;;;;;;5070878;28;20682;-50
2021/05/12 05:31:44;;;;;;;5.82;5.25;;;12.70;99.90;;;;;;5071701;28;20217;-52
2021/05/12 05:34:09;;;;;;;5.83;5.10;;;12.60;99.90;;;;;;5066316;28;20206;-51
2021/05/12 05:36:35;;;;;;;4.73;4.33;;;12.70;99.90;;;;;;5069763;28;20592;-52
2021/05/12 05:39:01;;;;;;;5.67;4.63;;;12.50;99.90;;;;;;5068181;28;20183;-52
2021/05/12 05:41:26;;;;;;;6.77;4.53;;;12.30;99.90;;;;;;5066369;28;20259;-52
2021/05/12 05:43:52;;;;;;;6.60;4.40;;;12.70;99.90;;;;;;5070137;28;20212;-51
2021/05/12 05:46:17;;;;;;;4.63;4.20;;;12.50;99.90;;;;;;5075287;28;20186;-52
2021/05/12 05:48:44;;;;;;;5.67;4.87;;;12.50;99.90;;;;;;5066286;28;20175;-52
2021/05/12 05:51:10;;;;;;;4.68;3.70;;;12.30;99.90;;;;;;5064299;28;20647;-51
2021/05/12 05:53:35;;;;;;;5.30;4.80;;;12.40;99.90;;;;;;5067614;28;20218;-51
2021/05/12 05:56:01;;;;;;;4.23;3.83;;;12.10;99.90;;;;;;5068296;28;20210;-52
2021/05/12 05:58:26;;;;;;;6.17;4.13;;;12.70;99.90;;;;;;5059177;28;20188;-51
2021/05/12 06:00:52;;;;;;;4.90;4.50;;;12.60;99.90;;;;;;5066752;28;20189;-51
2021/05/12 06:03:18;;;;;;;5.40;4.70;;;12.60;99.90;;;;;;5065710;28;20241;-51
2021/05/12 06:05:48;;;;;;;4.80;4.10;;;12.60;99.90;;;;;;5060301;28;20192;-51
2021/05/12 06:08:13;;;;;;;8.38;4.55;;;12.50;99.90;;;;;;5065087;28;20212;-51
2021/05/12 06:10:39;;;;;;;7.00;4.30;;;12.80;99.90;;;;;;5065358;28;20189;-51
2021/05/12 06:13:05;;;;;;;4.43;3.97;;;13.00;99.90;;;;;;5068486;28;20220;-49
2021/05/12 06:15:30;;;;;;;5.50;4.97;;;12.70;99.90;;;;;;5065762;28;20212;-51
2021/05/12 06:17:56;;;;;;;6.67;3.80;;;12.80;99.90;;;;;;5069361;28;20259;-51
2021/05/12 06:20:22;;;;;;;5.30;4.90;;;12.60;99.90;;;;;;5068919;28;20758;-50
2021/05/12 06:22:47;;;;;;;3.83;3.53;;;12.80;99.90;;;;;;5065808;28;20178;-51
2021/05/12 06:25:13;;;;;;;4.73;3.63;;;13.10;99.90;;;;;;5067519;28;20236;-51
2021/05/12 06:27:42;;;;;;;5.70;4.33;;;13.10;99.90;;;;;;5068646;28;20210;-53
2021/05/12 06:30:09;;;;;;;4.20;3.80;;;13.30;99.90;;;;;;5068005;28;20499;-50
2021/05/12 06:32:35;;;;;;;5.93;3.55;;;13.30;99.90;;;;;;5069237;28;20571;-51
2021/05/12 06:35:01;;;;;;;3.83;3.53;;;13.00;99.90;;;;;;5069878;28;20273;-51
2021/05/12 06:37:29;;;;;;;6.07;3.50;;;13.40;99.90;;;;;;5069259;28;20190;-51
2021/05/12 06:39:56;;;;;;;4.10;3.13;;;13.40;99.90;;;;;;5069844;28;20548;-52
2021/05/12 06:42:28;;;;;;;4.03;3.00;;;13.60;99.90;;;;;;5068900;28;20247;-49
2021/05/12 06:44:53;;;;;;;3.42;3.15;;;13.40;99.90;;;;;;5068068;28;20549;-49
2021/05/12 06:47:19;;;;;;;3.60;3.20;;;13.40;99.90;;;;;;5066441;28;20193;-50
2021/05/12 06:49:45;;;;;;;3.73;3.43;;;13.20;99.90;;;;;;5063378;28;20230;-54
2021/05/12 06:52:10;;;;;;;4.53;3.00;;;13.40;99.90;;;;;;5061891;28;20188;-51
2021/05/12 06:54:36;;;;;;;5.80;3.07;;;13.50;99.90;;;;;;5067608;28;20211;-54
2021/05/12 06:57:01;;;;;;;3.90;3.60;;;13.60;99.90;;;;;;5066827;28;20698;-52
2021/05/12 06:59:27;;;;;;;5.00;2.97;;;13.60;99.90;;;;;;5065450;28;20180;-51
2021/05/12 07:01:53;;;;;;;4.20;3.17;;;13.60;99.90;;;;;;5068448;28;20175;-52
2021/05/12 07:04:18;;;;;;;5.50;3.03;;;13.50;99.90;;;;;;5066967;28;20234;-52
2021/05/12 07:06:44;;;;;;;3.07;2.70;;;13.20;99.90;;;;;;5069972;28;20179;-52
2021/05/12 07:09:10;;;;;;;6.73;3.00;;;13.40;99.90;;;;;;5064738;28;20178;-55
2021/05/12 07:11:35;;;;;;;3.30;2.90;;;13.50;99.90;;;;;;5064745;28;20180;-55
2021/05/12 07:14:03;;;;;;;3.67;3.37;;;13.30;99.90;;;;;;5067498;28;20210;-52
2021/05/12 07:16:28;;;;;;;3.15;2.85;;;13.40;99.90;;;;;;5067635;28;20199;-50
2021/05/12 07:18:54;;;;;;;4.50;3.03;;;13.50;99.90;;;;;;5067696;28;20182;-54
2021/05/12 07:21:19;;;;;;;3.90;3.50;;;13.10;99.90;;;;;;5070492;28;20233;-51
2021/05/12 07:23:45;;;;;;;3.80;2.97;;;13.20;99.90;;;;;;5065698;28;20629;-51
2021/05/12 07:26:11;;;;;;;3.03;2.73;;;12.80;99.90;;;;;;5062848;28;20179;-49
2021/05/12 07:28:37;;;;;;;2.78;2.30;;;13.40;99.90;;;;;;5066593;28;20285;-49
2021/05/12 07:31:03;;;;;;;3.87;2.90;;;13.20;99.90;;;;;;5062461;28;20727;-51
2021/05/12 07:33:29;;;;;;;3.63;2.65;;;13.10;99.90;;;;;;5059839;28;20218;-51
2021/05/12 07:35:55;;;;;;;3.90;3.00;;;13.30;99.90;;;;;;5064044;28;20199;-53
2021/05/12 07:38:20;;;;;;;3.70;2.43;;;12.70;99.90;;;;;;5067523;28;20440;-50
2021/05/12 07:40:46;;;;;;;2.87;2.53;;;13.10;99.90;;;;;;5066952;28;20497;-52
2021/05/12 07:43:12;;;;;;;3.53;3.23;;;13.30;99.90;;;;;;5066711;28;20810;-51
2021/05/12 07:45:40;;;;;;;4.35;2.90;;;13.50;99.90;;;;;;5065918;28;20218;-52
2021/05/12 07:48:07;;;;;;;5.25;2.65;;;13.10;99.90;;;;;;5066449;28;20210;-53
2021/05/12 07:50:32;;;;;;;2.65;2.40;;;13.00;99.90;;;;;;5060461;28;20691;-52
2021/05/12 07:53:00;;;;;;;4.30;2.97;;;13.20;99.90;;;;;;5068293;28;20234;-53
2021/05/12 07:55:27;;;;;;;4.25;2.80;;;13.00;99.90;;;;;;5067134;28;20214;-53
2021/05/12 07:57:53;;;;;;;3.92;2.50;;;13.10;99.90;;;;;;5067604;28;20178;-52
2021/05/12 08:00:19;;;;;;;2.57;2.37;;;13.00;99.90;;;;;;5063217;28;20557;-51
2021/05/12 08:02:45;;;;;;;4.28;2.83;;;12.70;99.90;;;;;;5056433;28;20617;-51
2021/05/12 08:05:11;;;;;;;3.90;2.60;;;12.90;99.90;;;;;;5063178;28;20276;-53
2021/05/12 08:07:37;;;;;;;2.90;2.70;;;12.90;99.90;;;;;;5065821;28;20178;-51
2021/05/12 08:10:04;;;;;;;5.18;2.70;;;12.70;99.90;;;;;;5067121;28;20189;-53
2021/05/12 08:12:30;;;;;;;2.60;2.40;;;13.00;99.90;;;;;;5064232;28;20228;-54
2021/05/12 08:14:55;;;;;;;4.53;2.20;;;12.90;99.90;;;;;;5064481;28;20214;-53
2021/05/12 08:17:21;;;;;;;3.63;2.60;;;12.90;99.90;;;;;;5066226;28;20195;-50
2021/05/12 08:19:47;;;;;;;3.00;2.70;;;13.20;99.90;;;;;;5066586;28;20699;-52
2021/05/12 08:22:12;;;;;;;3.97;3.57;;;12.80;99.90;;;;;;5057058;28;20227;-52
2021/05/12 08:24:38;;;;;;;4.57;4.17;;;12.70;99.90;;;;;;5064842;28;20203;-52
2021/05/12 08:27:05;;;;;;;3.90;3.10;;;12.90;99.90;;;;;;5065275;28;20187;-52
2021/05/12 08:29:32;;;;;;;6.82;3.33;;;12.90;99.90;;;;;;5066966;28;20324;-51
2021/05/12 08:31:58;;;;;;;3.33;2.95;;;13.00;99.90;;;;;;5074125;28;20205;-50
2021/05/12 08:34:26;;;;;;;5.65;3.10;;;13.30;99.90;;;;;;5072810;28;20297;-51
2021/05/12 08:36:52;;;;;;;5.50;2.90;;;13.00;99.90;;;;;;5067978;28;20174;-51
2021/05/12 08:39:18;;;;;;;3.03;2.73;;;12.80;99.90;;;;;;5066368;28;20273;-51
2021/05/12 08:41:44;;;;;;;3.28;2.53;;;13.20;99.90;;;;;;5064987;28;20175;-52
2021/05/12 08:44:15;;;;;;;4.28;3.13;;;13.30;99.90;;;;;;5066625;28;20419;-50
2021/05/12 08:46:43;;;;;;;3.13;2.45;;;13.00;99.90;;;;;;5066663;28;20601;-51
2021/05/12 08:49:08;;;;;;;4.18;2.60;;;12.80;99.90;;;;;;5069313;28;20194;-53
2021/05/12 08:51:36;;;;;;;5.83;2.60;;;13.10;99.90;;;;;;5065385;28;20190;-52
2021/05/12 08:54:02;;;;;;;14.65;6.28;;;13.20;99.90;;;;;;5065572;28;20509;-52
2021/05/12 08:56:27;;;;;;;4.83;3.43;;;13.20;99.90;;;;;;5065320;28;20294;-52
2021/05/12 08:58:53;;;;;;;29.90;9.30;;;13.10;99.90;;;;;;5064187;28;20434;-52
2021/05/12 09:01:19;;;;;;;32.47;10.83;;;13.60;99.90;;;;;;5065919;28;20207;-52
2021/05/12 09:03:46;;;;;;;4.32;3.60;;;13.80;99.90;;;;;;5069432;28;20197;-53
2021/05/12 09:06:12;;;;;;;5.80;3.40;;;13.50;99.90;;;;;;5064840;28;20279;-51
2021/05/12 09:08:39;;;;;;;4.50;2.85;;;13.40;99.90;;;;;;5070919;28;20219;-53
2021/05/12 09:11:04;;;;;;;5.20;2.75;;;13.40;99.90;;;;;;5067077;28;20575;-53
2021/05/12 09:13:38;;;;;;;3.03;2.70;;;13.40;99.90;;;;;;5069355;28;20212;-54
2021/05/12 09:16:23;;;;;;;3.70;3.20;;;13.80;99.90;;;;;;5068534;28;20966;-54
2021/05/12 09:19:03;;;;;;;3.60;3.20;;;13.80;99.90;;;;;;5064828;28;20184;-52
2021/05/12 09:21:43;;;;;;;3.58;3.05;;;13.70;99.90;;;;;;5069724;28;20263;-54
2021/05/12 09:24:21;;;;;;;4.85;2.80;;;13.90;99.90;;;;;;5068050;28;20211;-55
2021/05/12 09:26:48;;;;;;;4.32;2.40;;;13.90;99.90;;;;;;5069932;28;20179;-52
2021/05/12 09:29:30;;;;;;;4.53;3.10;;;14.10;99.90;;;;;;5068221;28;20427;-54
2021/05/12 09:32:10;;;;;;;3.25;2.80;;;13.70;99.90;;;;;;5065821;28;20279;-54
2021/05/12 09:34:52;;;;;;;2.70;2.50;;;13.80;99.90;;;;;;5067202;28;20216;-54
2021/05/12 09:37:35;;;;;;;3.95;2.65;;;13.60;99.90;;;;;;5064517;28;20263;-54
2021/05/12 09:40:06;;;;;;;3.20;2.50;;;13.50;99.90;;;;;;5069915;28;20642;-54
2021/05/12 09:42:32;;;;;;;5.65;2.65;;;13.70;99.90;;;;;;5065650;28;20180;-54
2021/05/12 09:45:16;;;;;;;2.90;2.60;;;13.90;99.90;;;;;;5064497;28;20610;-54
2021/05/12 09:47:44;;;;;;;3.38;2.67;;;13.90;99.90;;;;;;5066252;28;20448;-53
2021/05/12 09:50:09;;;;;;;4.13;2.80;;;14.00;99.90;;;;;;5062690;28;20778;-54
2021/05/12 09:52:35;;;;;;;3.20;2.40;;;14.20;99.90;;;;;;5066669;28;20204;-53
2021/05/12 09:55:03;;;;;;;2.50;2.30;;;14.50;99.90;;;;;;5065270;28;20980;-53
2021/05/12 09:57:29;;;;;;;3.55;3.17;;;14.10;99.90;;;;;;5066403;28;20474;-55
2021/05/12 09:59:54;;;;;;;2.70;2.50;;;14.20;99.90;;;;;;5067265;28;20238;-54
2021/05/12 10:02:20;;;;;;;7.03;2.73;;;14.20;99.90;;;;;;5066985;28;20176;-54
2021/05/12 10:04:48;;;;;;;2.57;2.37;;;14.20;99.90;;;;;;5068795;28;20197;-53
2021/05/12 10:07:14;;;;;;;3.58;2.70;;;14.30;99.90;;;;;;5063046;28;20197;-54
2021/05/12 10:09:43;;;;;;;4.77;2.90;;;14.30;99.90;;;;;;5064884;28;20246;-54
2021/05/12 10:12:21;;;;;;;5.22;3.17;;;14.40;99.90;;;;;;5061548;28;20284;-54
2021/05/12 10:14:53;;;;;;;7.15;4.95;;;14.50;99.90;;;;;;5073593;28;20219;-59
2021/05/12 10:17:20;;;;;;;4.53;3.20;;;14.60;99.90;;;;;;5067950;28;20215;-54
2021/05/12 10:19:47;;;;;;;3.33;2.88;;;14.40;99.90;;;;;;5064727;28;20230;-54
2021/05/12 10:22:14;;;;;;;4.38;3.55;;;14.40;99.90;;;;;;5059551;28;20181;-55
2021/05/12 10:24:42;;;;;;;4.43;4.03;;;14.50;99.90;;;;;;5061517;28;20636;-54
2021/05/12 10:27:15;;;;;;;2.70;2.50;;;14.20;99.90;;;;;;5069673;28;20180;-53
2021/05/12 10:29:46;;;;;;;5.03;2.67;;;14.20;99.90;;;;;;5067695;28;20176;-55
2021/05/12 10:32:24;;;;;;;4.85;2.80;;;14.30;99.90;;;;;;5068237;28;20618;-54
2021/05/12 10:35:10;;;;;;;4.30;3.10;;;14.30;99.90;;;;;;5060580;28;20576;-55
2021/05/12 10:37:38;;;;;;;5.32;4.10;;;14.30;99.90;;;;;;5064265;28;20642;-54
2021/05/12 10:40:19;;;;;;;4.22;3.30;;;13.90;99.90;;;;;;5067261;28;20374;-50
2021/05/12 10:42:51;;;;;;;4.47;3.15;;;14.40;99.90;;;;;;5066969;28;20180;-49
2021/05/12 10:45:36;;;;;;;2.30;2.10;;;14.40;99.90;;;;;;5066897;28;20561;-51
2021/05/12 10:48:03;;;;;;;4.70;2.78;;;14.40;99.90;;;;;;5060452;28;20671;-49
2021/05/12 10:50:45;;;;;;;4.03;2.88;;;14.20;99.90;;;;;;5067256;28;20191;-49
2021/05/12 10:53:20;;;;;;;3.88;3.40;;;14.50;99.90;;;;;;5066533;28;20596;-51
2021/05/12 10:55:55;;;;;;;5.80;2.67;;;14.10;99.90;;;;;;5067526;28;20228;-52
2021/05/12 10:58:21;;;;;;;3.40;3.20;;;14.50;99.90;;;;;;5065091;28;20194;-50
2021/05/12 11:00:58;;;;;;;2.45;2.00;;;14.40;99.90;;;;;;5071398;28;20267;-51
2021/05/12 11:03:25;;;;;;;3.53;3.15;;;14.40;99.90;;;;;;5064782;28;20379;-50
2021/05/12 11:05:57;;;;;;;2.85;2.65;;;14.20;99.90;;;;;;5066000;28;20181;-52
2021/05/12 11:08:23;;;;;;;2.70;2.30;;;14.20;99.90;;;;;;5065752;28;20668;-52
2021/05/12 11:10:58;;;;;;;3.20;2.58;;;14.30;99.90;;;;;;5066369;28;20575;-51
2021/05/12 11:13:29;;;;;;;5.95;2.72;;;14.30;99.90;;;;;;5067139;28;20207;-50
2021/05/12 11:15:58;;;;;;;5.20;2.45;;;14.30;99.90;;;;;;5064776;28;20203;-52
2021/05/12 11:18:45;;;;;;;7.10;2.67;;;14.60;99.90;;;;;;5065277;28;20216;-53
2021/05/12 11:21:17;;;;;;;4.40;2.80;;;14.70;99.90;;;;;;5067066;28;20184;-51
2021/05/12 11:24:13;;;;;;;4.28;2.70;;;14.90;99.90;;;;;;5065813;28;20203;-51
2021/05/12 11:32:02;;;;;;;3.15;2.85;;;15.30;99.80;;;;;;5059092;28;20660;-53
2021/05/12 11:34:29;;;;;;;2.80;2.60;;;15.50;99.20;;;;;;5061684;28;20204;-50
2021/05/12 11:37:18;;;;;;;2.95;2.00;;;15.60;99.80;;;;;;5066784;28;20221;-49
2021/05/12 11:39:49;;;;;;;5.25;3.45;;;15.50;98.80;;;;;;5062109;28;20234;-52
2021/05/12 11:42:30;;;;;;;4.30;2.95;;;15.70;99.60;;;;;;5062335;28;20622;-52
2021/05/12 11:45:16;;;;;;;4.10;3.80;;;15.50;99.90;;;;;;5060262;28;20212;-52
2021/05/12 11:47:44;;;;;;;6.03;2.40;;;16.10;99.70;;;;;;5067364;28;20203;-51
2021/05/12 11:50:24;;;;;;;2.40;2.20;;;16.20;99.60;;;;;;5066919;28;20211;-51
2021/05/12 11:52:50;;;;;;;3.67;2.28;;;15.90;99.90;;;;;;5066771;28;20208;-52
2021/05/12 11:55:19;;;;;;;3.67;3.00;;;15.90;99.80;;;;;;5069971;28;20192;-53
2021/05/12 11:57:46;;;;;;;2.38;2.17;;;16.20;99.90;;;;;;5069729;28;20209;-52
2021/05/12 12:00:17;;;;;;;3.53;2.65;;;16.00;99.60;;;;;;5068224;28;20176;-51
2021/05/12 12:02:58;;;;;;;5.13;3.10;;;16.20;99.70;;;;;;5067921;28;20227;-51
2021/05/12 12:05:27;;;;;;;3.15;2.45;;;16.30;99.10;;;;;;5039507;28;20181;-51
2021/05/12 12:08:14;;;;;;;5.80;2.75;;;16.10;99.60;;;;;;5063501;28;20181;-52
2021/05/12 12:10:40;;;;;;;6.55;4.90;;;16.00;99.20;;;;;;5063717;28;20308;-51
2021/05/12 12:13:14;;;;;;;2.50;2.30;;;16.40;99.20;;;;;;5067238;28;20670;-52
2021/05/12 12:15:41;;;;;;;2.72;2.42;;;16.50;97.40;;;;;;5070548;28;20200;-52
2021/05/12 12:18:06;;;;;;;5.35;3.40;;;16.50;96.80;;;;;;5065669;28;20188;-55
2021/05/12 12:20:36;;;;;;;4.20;2.50;;;16.70;96.70;;;;;;5061905;28;20185;-56
2021/05/12 12:23:02;;;;;;;4.18;2.58;;;16.90;96.70;;;;;;5066520;28;20621;-51
2021/05/12 12:25:34;;;;;;;6.28;3.50;;;16.80;97.10;;;;;;5064029;28;20190;-50
2021/05/12 12:28:01;;;;;;;2.65;2.45;;;16.70;97.20;;;;;;5065178;28;20246;-50
2021/05/12 12:30:27;;;;;;;3.45;3.00;;;16.80;97.40;;;;;;5069626;28;20185;-50
2021/05/12 12:32:52;;;;;;;2.90;2.17;;;17.00;96.70;;;;;;5065909;28;20535;-52
2021/05/12 12:35:18;;;;;;;3.57;2.43;;;16.30;96.40;;;;;;5066926;28;20373;-50
2021/05/12 12:37:43;;;;;;;4.90;2.50;;;16.50;96.60;;;;;;5069882;28;20181;-50
2021/05/12 12:40:13;;;;;;;4.20;1.90;;;16.70;96.90;;;;;;5070479;28;20238;-51
2021/05/12 12:42:49;;;;;;;3.80;2.60;;;16.80;96.20;;;;;;5074431;28;20189;-53
2021/05/12 12:45:30;;;;;;;3.47;2.63;;;16.60;96.10;;;;;;5070532;28;20220;-54
2021/05/12 12:47:58;;;;;;;4.75;2.40;;;16.60;96.00;;;;;;5068805;28;20223;-52
2021/05/12 12:50:26;;;;;;;5.30;2.60;;;16.50;96.50;;;;;;5069690;28;20632;-53
2021/05/12 12:52:52;;;;;;;2.80;2.60;;;16.40;96.70;;;;;;5071351;28;20642;-55
2021/05/12 12:55:24;;;;;;;2.83;2.63;;;16.40;97.40;;;;;;5068419;28;20203;-51
2021/05/12 12:58:00;;;;;;;4.20;2.50;;;16.30;97.90;;;;;;5069510;28;20192;-52